Little River, California
Current Conditions -  °F | °C
As of 4:56 AM on Saturday 25 Oct 2014 (Local Time) from KUKI Reporting Station
Light Rain Light Rain  
Wind Chill: 57°   Ceiling: 2600
Heat Index: 57°   Visibility: 10mi
Dew Point: 52°   Wind: 6mph
Humidity: 83%   Direction: 150°SSE
Pressure: 29.85"   Gusts: NA
Location:  39.26°N, 123.75°W
Report Text: KUKI 251156Z AUTO 15005KT 10SM -RA BKN026 BKN031 OVC080 14/11 A2985 RMK AO2 SLP100 P0005 60019 70019 T01390111 10167 20139 53008
Loading
Personal Weather Stations






























Interactive Weather Map
Tropical Storm Tracking
New forecast layout! Learn more

10-Day Weather Forecast

Advertisements
Track Severe Weather on mobile